createdAt,value
2018-02-15T00:01:54.483Z,42.90
2018-02-15T00:04:21.970Z,52.28
2018-02-15T00:06:49.451Z,46.65
2018-02-15T00:09:17.022Z,45.30
2018-02-15T00:11:44.565Z,48.15
2018-02-15T00:14:12.025Z,51.15
2018-02-15T00:16:39.610Z,46.78
2018-02-15T00:19:07.169Z,58.08
2018-02-15T00:21:34.674Z,48.85
2018-02-15T00:24:02.148Z,51.78
2018-02-15T00:26:29.634Z,47.20
2018-02-15T00:28:57.093Z,52.08
2018-02-15T00:31:24.567Z,49.78
2018-02-15T00:33:52.079Z,46.42
2018-02-15T00:36:19.532Z,55.28
2018-02-15T00:38:47.176Z,49.70
2018-02-15T00:41:14.674Z,49.97
2018-02-15T00:43:42.140Z,48.17
2018-02-15T00:46:09.682Z,53.40
2018-02-15T00:48:37.142Z,46.20
2018-02-15T00:51:04.690Z,51.03
2018-02-15T00:53:32.163Z,52.40
2018-02-15T00:55:59.790Z,51.13
2018-02-15T00:58:27.312Z,49.20
2018-02-15T01:00:54.797Z,50.17
2018-02-15T01:03:22.262Z,45.40
2018-02-15T01:05:49.818Z,55.12
2018-02-15T01:08:17.286Z,54.10
2018-02-15T01:10:44.807Z,57.00
2018-02-15T01:13:12.266Z,54.38
2018-02-15T01:15:39.722Z,43.72
2018-02-15T01:18:07.186Z,57.62
2018-02-15T01:20:34.650Z,49.92
2018-02-15T01:23:02.154Z,55.60
2018-02-15T01:25:29.621Z,52.25
2018-02-15T01:27:57.096Z,51.53
2018-02-15T01:30:24.754Z,52.28
2018-02-15T01:32:52.239Z,53.92
2018-02-15T01:35:19.710Z,47.15
2018-02-15T01:37:47.247Z,51.35
2018-02-15T01:40:14.725Z,50.40
2018-02-15T01:42:42.253Z,46.88
2018-02-15T01:45:09.787Z,54.58
2018-02-15T01:47:37.263Z,54.33
2018-02-15T01:50:04.771Z,55.78
2018-02-15T01:52:32.251Z,55.92
2018-02-15T01:54:59.703Z,58.67
2018-02-15T01:57:27.172Z,56.40
2018-02-15T01:59:54.629Z,48.63
2018-02-15T02:02:22.092Z,54.05
2018-02-15T02:04:49.555Z,62.00
2018-02-15T02:07:17.040Z,55.05
2018-02-15T02:09:44.506Z,60.10
2018-02-15T02:12:12.062Z,58.15
2018-02-15T02:14:39.517Z,55.25
2018-02-15T02:17:06.987Z,58.58
2018-02-15T02:19:34.438Z,62.17
2018-02-15T02:22:01.894Z,57.17
2018-02-15T02:24:29.376Z,59.20
2018-02-15T02:26:56.907Z,56.95
2018-02-15T02:29:24.377Z,51.50
2018-02-15T02:31:51.843Z,57.15
2018-02-15T02:34:19.360Z,61.25
2018-02-15T02:36:46.884Z,65.97
2018-02-15T02:39:14.352Z,64.95
2018-02-15T02:41:41.844Z,50.15
2018-02-15T02:44:09.300Z,51.63
2018-02-15T02:46:36.755Z,62.60
2018-02-15T02:49:04.223Z,55.65
2018-02-15T02:51:31.704Z,56.67
2018-02-15T02:53:59.150Z,63.85
2018-02-15T02:56:26.637Z,59.28
2018-02-15T02:58:54.096Z,60.83
2018-02-15T03:01:21.586Z,61.47
2018-02-15T03:03:49.073Z,61.05
2018-02-15T03:06:16.540Z,64.55
2018-02-15T03:08:44.008Z,61.95
2018-02-15T03:11:11.475Z,62.13
2018-02-15T03:13:38.941Z,62.33
2018-02-15T03:16:06.444Z,60.25
2018-02-15T03:18:33.914Z,56.60
2018-02-15T03:21:01.465Z,57.67
2018-02-15T03:23:28.930Z,59.22
2018-02-15T03:25:56.385Z,59.63
2018-02-15T03:28:23.850Z,59.08
2018-02-15T03:30:51.303Z,62.40
2018-02-15T03:33:18.831Z,70.05
2018-02-15T03:35:46.311Z,65.12
2018-02-15T03:38:13.782Z,75.78
2018-02-15T03:40:41.658Z,61.67
2018-02-15T03:43:09.137Z,67.35
2018-02-15T03:45:36.599Z,71.18
2018-02-15T03:48:04.099Z,68.15
2018-02-15T03:50:31.579Z,60.88
2018-02-15T03:52:59.033Z,56.97
2018-02-15T03:55:26.522Z,61.80
2018-02-15T03:57:53.983Z,64.12
2018-02-15T04:00:27.225Z,61.40
2018-02-15T04:02:54.700Z,60.90
2018-02-15T04:05:22.184Z,60.92
2018-02-15T04:07:49.647Z,61.20
2018-02-15T04:10:17.152Z,66.90
2018-02-15T04:12:44.636Z,60.03
2018-02-15T04:15:12.150Z,60.33
2018-02-15T04:17:39.673Z,62.80
2018-02-15T04:20:07.146Z,64.65
2018-02-15T04:22:34.614Z,59.90
2018-02-15T04:25:02.070Z,74.40
2018-02-15T04:27:29.557Z,68.90
2018-02-15T04:29:57.027Z,73.87
2018-02-15T04:32:24.496Z,72.65
2018-02-15T04:34:51.971Z,61.25
2018-02-15T04:37:19.428Z,62.03
2018-02-15T04:39:46.907Z,63.17
2018-02-15T04:42:14.391Z,67.15
2018-02-15T04:44:41.855Z,62.78
2018-02-15T04:47:09.334Z,64.53
2018-02-15T04:49:36.791Z,59.13
2018-02-15T04:52:04.274Z,65.80
2018-02-15T04:54:31.751Z,58.10
2018-02-15T04:56:59.223Z,56.00
2018-02-15T04:59:26.714Z,63.42
2018-02-15T05:01:54.182Z,61.03
2018-02-15T05:04:21.665Z,67.07
2018-02-15T05:06:49.142Z,58.53
2018-02-15T05:09:16.673Z,70.40
2018-02-15T05:11:44.141Z,63.80
2018-02-15T05:14:11.675Z,61.60
2018-02-15T05:16:39.332Z,65.47
2018-02-15T05:19:06.827Z,62.13
2018-02-15T05:21:34.295Z,53.17
2018-02-15T05:24:01.753Z,56.72
2018-02-15T05:26:29.223Z,62.58
2018-02-15T05:28:56.703Z,56.25
2018-02-15T05:31:25.115Z,63.25
2018-02-15T05:33:52.627Z,66.20
2018-02-15T05:36:20.102Z,57.40
2018-02-15T05:38:47.706Z,63.30
2018-02-15T05:41:15.204Z,59.20
2018-02-15T05:43:42.675Z,58.72
2018-02-15T05:46:10.136Z,60.28
2018-02-15T05:48:37.644Z,62.62
2018-02-15T05:51:05.099Z,56.20
2018-02-15T05:53:32.591Z,62.62
2018-02-15T05:56:00.094Z,75.10
2018-02-15T05:58:27.560Z,111.50
2018-02-15T06:00:55.046Z,89.45
2018-02-15T06:03:22.519Z,64.35
2018-02-15T06:05:49.998Z,67.82
2018-02-15T06:08:17.483Z,64.93
2018-02-15T06:10:44.992Z,64.22
2018-02-15T06:13:12.466Z,65.82
2018-02-15T06:15:39.950Z,61.25
2018-02-15T06:18:07.407Z,61.67
2018-02-15T06:20:34.866Z,59.08
2018-02-15T06:23:02.356Z,70.07
2018-02-15T06:25:30.000Z,67.97
2018-02-15T06:27:57.474Z,59.67
2018-02-15T06:30:26.123Z,55.70
2018-02-15T06:32:53.615Z,60.28
2018-02-15T06:35:21.098Z,63.83
2018-02-15T06:37:48.595Z,59.88
2018-02-15T06:40:16.059Z,60.63
2018-02-15T06:42:43.708Z,60.42
2018-02-15T06:45:11.217Z,65.62
2018-02-15T06:47:38.682Z,65.57
2018-02-15T06:50:06.160Z,64.32
2018-02-15T06:52:33.622Z,62.72
2018-02-15T06:55:01.096Z,62.72
2018-02-15T06:57:28.567Z,62.80
2018-02-15T06:59:56.073Z,59.05
2018-02-15T07:02:23.560Z,56.20
2018-02-15T07:04:51.018Z,66.95
2018-02-15T07:07:18.510Z,67.87
2018-02-15T07:09:45.983Z,65.57
2018-02-15T07:12:14.284Z,60.67
2018-02-15T07:14:41.783Z,60.78
2018-02-15T07:17:09.272Z,63.60
2018-02-15T07:19:36.748Z,56.80
2018-02-15T07:22:04.240Z,63.10
2018-02-15T07:24:31.739Z,61.40
2018-02-15T07:26:59.239Z,58.80
2018-02-15T07:29:26.721Z,60.10
2018-02-15T07:31:54.211Z,64.57
2018-02-15T07:34:21.667Z,62.43
2018-02-15T07:36:49.158Z,60.53
2018-02-15T07:39:16.695Z,63.13
2018-02-15T07:41:44.172Z,58.92
2018-02-15T07:44:11.676Z,63.17
2018-02-15T07:46:40.423Z,55.80
2018-02-15T07:49:07.903Z,66.53
2018-02-15T07:51:35.386Z,62.95
2018-02-15T07:54:03.063Z,56.23
2018-02-15T07:56:30.615Z,61.05
2018-02-15T07:58:58.096Z,65.27
2018-02-15T08:01:25.593Z,55.37
2018-02-15T08:03:53.068Z,60.20
2018-02-15T08:06:20.532Z,63.13
2018-02-15T08:08:48.116Z,63.33
2018-02-15T08:11:15.619Z,50.63
2018-02-15T08:13:43.120Z,54.87
2018-02-15T08:16:10.595Z,50.63
2018-02-15T08:18:38.059Z,50.40
2018-02-15T08:21:05.561Z,56.33
2018-02-15T08:23:33.042Z,57.87
2018-02-15T08:26:00.522Z,56.13
2018-02-15T08:28:27.972Z,59.03
2018-02-15T08:30:55.426Z,57.67
2018-02-15T08:33:22.912Z,56.90
2018-02-15T08:35:50.413Z,51.43
2018-02-15T08:38:17.869Z,52.10
2018-02-15T08:40:45.354Z,61.17
2018-02-15T08:43:12.819Z,55.23
2018-02-15T08:45:40.287Z,48.17
2018-02-15T08:48:07.779Z,51.60
2018-02-15T08:50:35.300Z,48.50
2018-02-15T08:53:02.792Z,56.73
2018-02-15T08:55:30.271Z,52.50
2018-02-15T08:57:57.755Z,51.90
2018-02-15T09:00:25.345Z,45.40
2018-02-15T09:15:50.960Z,48.03
2018-02-15T09:18:18.442Z,46.50
2018-02-15T09:20:46.039Z,44.00
2018-02-15T09:23:13.515Z,43.70
2018-02-15T09:25:41.005Z,47.03
2018-02-15T09:28:08.487Z,48.80
2018-02-15T09:30:36.022Z,44.80
2018-02-15T09:33:03.567Z,44.40
2018-02-15T09:35:31.056Z,55.17
2018-02-15T09:37:58.507Z,49.20
2018-02-15T09:40:25.979Z,49.40
2018-02-15T09:42:53.431Z,50.87
2018-02-15T09:45:20.883Z,56.60
2018-02-15T09:47:48.378Z,49.37
2018-02-15T09:50:15.854Z,55.23
2018-02-15T09:52:43.415Z,51.97
2018-02-15T09:55:10.878Z,47.40
2018-02-15T09:57:38.360Z,47.27
2018-02-15T10:00:05.904Z,46.53
2018-02-15T10:02:33.355Z,38.53
2018-02-15T10:05:00.826Z,42.87
2018-02-15T10:07:28.354Z,45.10
2018-02-15T10:09:55.817Z,43.73
2018-02-15T10:12:23.293Z,44.97
2018-02-15T10:14:51.538Z,49.70
2018-02-15T10:17:19.119Z,43.63
2018-02-15T10:19:46.564Z,49.90
2018-02-15T10:22:14.041Z,46.40
2018-02-15T10:24:41.555Z,41.60
2018-02-15T10:27:09.039Z,41.80
2018-02-15T10:29:36.519Z,45.00
2018-02-15T10:32:04.002Z,46.10
2018-02-15T10:34:31.518Z,42.77
2018-02-15T10:36:58.979Z,44.83
2018-02-15T10:39:26.619Z,46.37
2018-02-15T10:41:54.094Z,43.20
2018-02-15T10:44:21.546Z,33.50
2018-02-15T10:46:49.034Z,38.03
2018-02-15T10:49:16.481Z,38.73
2018-02-15T10:51:43.967Z,39.20
2018-02-15T10:54:11.451Z,41.63
2018-02-15T10:56:38.983Z,37.67
2018-02-15T10:59:06.530Z,37.30
2018-02-15T11:01:39.545Z,48.37
2018-02-15T11:04:12.498Z,36.10
2018-02-15T11:06:39.984Z,40.17
2018-02-15T11:09:07.450Z,36.87
2018-02-15T11:11:34.902Z,35.43
2018-02-15T11:14:02.394Z,37.27
2018-02-15T11:16:29.888Z,38.73
2018-02-15T11:18:57.396Z,39.57
2018-02-15T11:21:24.926Z,37.47
2018-02-15T11:23:52.412Z,39.93
2018-02-15T11:26:19.897Z,38.37
2018-02-15T11:28:47.494Z,36.67
2018-02-15T11:31:14.954Z,40.47
2018-02-15T11:33:42.411Z,37.93
2018-02-15T11:36:09.911Z,33.80
2018-02-15T11:38:37.363Z,34.03
2018-02-15T11:41:04.876Z,35.97
2018-02-15T11:43:32.414Z,36.57
2018-02-15T11:45:59.911Z,32.47
2018-02-15T11:48:27.402Z,39.37
2018-02-15T11:50:54.926Z,36.73
2018-02-15T11:53:22.384Z,36.23
2018-02-15T11:55:49.888Z,38.60
2018-02-15T11:58:17.399Z,39.87
2018-02-15T12:00:44.893Z,37.33
2018-02-15T12:03:13.025Z,38.47
2018-02-15T12:05:40.479Z,54.90
2018-02-15T12:08:08.017Z,32.70
2018-02-15T12:10:35.498Z,38.33
2018-02-15T12:13:02.980Z,41.50
2018-02-15T12:15:30.505Z,33.80
2018-02-15T12:17:57.989Z,44.53
2018-02-15T12:20:25.448Z,38.83
2018-02-15T12:22:52.935Z,37.40
2018-02-15T12:25:20.399Z,36.37
2018-02-15T12:27:47.909Z,38.57
2018-02-15T12:30:15.394Z,38.70
2018-02-15T12:32:42.860Z,35.47
2018-02-15T12:35:10.364Z,37.30
2018-02-15T12:37:37.840Z,41.17
2018-02-15T12:40:05.311Z,39.57
2018-02-15T12:42:32.842Z,39.50
2018-02-15T12:45:00.358Z,38.27
2018-02-15T12:47:27.840Z,42.10
2018-02-15T12:49:55.319Z,43.27
2018-02-15T12:52:22.788Z,44.50
2018-02-15T12:54:50.270Z,46.93
2018-02-15T12:57:17.782Z,39.30
2018-02-15T12:59:45.251Z,43.90
2018-02-15T13:02:12.735Z,38.17
2018-02-15T13:04:40.296Z,40.20
2018-02-15T13:07:07.806Z,39.00
2018-02-15T13:09:35.332Z,41.80
2018-02-15T13:12:02.840Z,40.20
2018-02-15T13:14:30.316Z,38.53
2018-02-15T13:16:57.833Z,36.00
2018-02-15T13:19:37.130Z,44.47
2018-02-15T13:22:07.241Z,42.50
2018-02-15T13:24:34.719Z,43.60
2018-02-15T13:27:02.273Z,38.13
2018-02-15T13:29:29.764Z,43.03
2018-02-15T13:31:57.275Z,54.80
2018-02-15T13:34:24.787Z,38.93
2018-02-15T13:36:52.321Z,43.73
2018-02-15T13:39:19.888Z,43.27
2018-02-15T13:41:47.377Z,39.77
2018-02-15T13:44:14.871Z,39.70
2018-02-15T13:46:42.400Z,41.33
2018-02-15T13:49:09.868Z,43.63
2018-02-15T13:51:37.360Z,41.87
2018-02-15T13:54:04.847Z,41.33
2018-02-15T13:56:32.340Z,34.57
2018-02-15T13:58:59.860Z,39.23
2018-02-15T14:01:27.424Z,41.00
2018-02-15T14:03:54.900Z,35.90
2018-02-15T14:06:23.303Z,39.40
2018-02-15T14:08:50.811Z,35.10
2018-02-15T14:11:18.316Z,38.17
2018-02-15T14:13:45.803Z,36.80
2018-02-15T14:16:13.319Z,35.30
2018-02-15T14:18:40.804Z,42.10
2018-02-15T14:21:08.279Z,41.17
2018-02-15T14:23:35.765Z,36.63
2018-02-15T14:26:03.243Z,32.77
2018-02-15T14:28:30.706Z,36.47
2018-02-15T14:30:58.208Z,33.17
2018-02-15T14:33:25.698Z,34.30
2018-02-15T14:35:53.183Z,34.50
2018-02-15T14:38:20.708Z,36.00
2018-02-15T14:40:48.269Z,32.37
2018-02-15T14:43:15.727Z,38.00
2018-02-15T14:45:43.219Z,40.70
2018-02-15T14:48:10.687Z,41.93
2018-02-15T14:50:38.177Z,36.60
2018-02-15T14:53:05.703Z,38.03
2018-02-15T14:55:33.183Z,38.27
2018-02-15T14:58:00.644Z,39.00
2018-02-15T15:00:28.146Z,34.50
2018-02-15T15:02:55.668Z,30.30
2018-02-15T15:05:23.137Z,32.63
2018-02-15T15:07:50.648Z,30.97
2018-02-15T15:10:18.200Z,35.83
2018-02-15T15:12:45.826Z,40.67
2018-02-15T15:15:14.364Z,36.77
2018-02-15T15:17:41.855Z,34.13
2018-02-15T15:20:09.355Z,31.90
2018-02-15T15:22:36.836Z,33.50
2018-02-15T15:25:04.358Z,39.90
2018-02-15T15:27:31.898Z,45.60
2018-02-15T15:29:59.387Z,38.60
2018-02-15T15:32:26.868Z,36.43
2018-02-15T15:34:54.348Z,34.53
2018-02-15T15:37:21.830Z,36.63
2018-02-15T15:39:49.317Z,36.13
2018-02-15T15:42:16.827Z,34.17
2018-02-15T15:44:44.337Z,32.57
2018-02-15T15:47:11.798Z,40.27
2018-02-15T15:49:39.286Z,32.77
2018-02-15T15:52:06.788Z,38.13
2018-02-15T15:54:34.262Z,34.13
2018-02-15T15:57:01.737Z,35.77
2018-02-15T15:59:29.227Z,41.63
2018-02-15T16:01:56.694Z,38.37
2018-02-15T16:04:24.176Z,47.93
2018-02-15T16:06:51.660Z,37.70
2018-02-15T16:09:19.498Z,34.60
2018-02-15T16:11:47.030Z,45.57
2018-02-15T16:14:14.504Z,40.60
2018-02-15T16:16:41.988Z,35.87
2018-02-15T16:19:09.489Z,37.40
2018-02-15T16:21:36.992Z,36.97
2018-02-15T16:24:04.461Z,39.20
2018-02-15T16:26:31.959Z,46.00
2018-02-15T16:28:59.423Z,40.90
2018-02-15T16:31:26.907Z,36.87
2018-02-15T16:33:54.483Z,38.70
2018-02-15T16:36:21.961Z,42.07
2018-02-15T16:38:49.474Z,45.00
2018-02-15T16:41:16.951Z,38.97
2018-02-15T16:43:44.404Z,39.90
2018-02-15T16:46:11.912Z,40.70
2018-02-15T16:48:39.452Z,43.73
2018-02-15T16:51:06.989Z,42.57
2018-02-15T16:53:34.455Z,46.30
2018-02-15T16:56:01.941Z,43.07
2018-02-15T16:58:29.446Z,35.07
2018-02-15T17:00:56.929Z,35.57
2018-02-15T17:03:24.475Z,41.03
2018-02-15T17:05:51.996Z,38.13
2018-02-15T17:08:19.456Z,35.67
2018-02-15T17:10:46.929Z,43.90
2018-02-15T17:13:14.426Z,39.23
2018-02-15T17:15:41.894Z,46.47
2018-02-15T17:18:09.379Z,37.47
2018-02-15T17:20:36.852Z,41.73
2018-02-15T17:23:04.317Z,45.50
2018-02-15T17:25:31.790Z,41.17
2018-02-15T17:27:59.262Z,39.27
2018-02-15T17:30:26.731Z,38.40
2018-02-15T17:32:54.237Z,40.73
2018-02-15T17:35:21.718Z,43.63
2018-02-15T17:37:49.173Z,38.43
2018-02-15T17:40:16.635Z,38.57
2018-02-15T17:42:44.432Z,43.17
2018-02-15T17:45:11.893Z,33.47
2018-02-15T17:47:39.367Z,39.90
2018-02-15T17:50:06.824Z,40.20
2018-02-15T17:52:34.457Z,37.73
2018-02-15T17:55:01.941Z,40.47
2018-02-15T17:57:29.422Z,38.00
2018-02-15T17:59:56.895Z,35.33
2018-02-15T18:02:24.359Z,40.50
2018-02-15T18:04:51.816Z,35.43
2018-02-15T18:07:19.279Z,37.53
2018-02-15T18:09:46.780Z,38.73
2018-02-15T18:12:14.282Z,38.00
2018-02-15T18:14:41.731Z,43.77
2018-02-15T18:17:09.232Z,43.07
2018-02-15T18:19:36.691Z,35.07
2018-02-15T18:22:04.176Z,37.37
2018-02-15T18:24:31.681Z,44.63
2018-02-15T18:26:59.139Z,38.83
2018-02-15T18:29:26.607Z,38.97
2018-02-15T18:31:54.078Z,44.83
2018-02-15T18:34:21.544Z,41.37
2018-02-15T18:36:49.016Z,42.13
2018-02-15T18:39:16.616Z,46.37
2018-02-15T18:41:44.085Z,39.20
2018-02-15T18:44:11.554Z,38.30
2018-02-15T18:46:39.076Z,39.10
2018-02-15T18:49:06.527Z,40.13
2018-02-15T18:51:33.992Z,43.30
2018-02-15T18:54:01.451Z,45.17
2018-02-15T18:56:28.919Z,41.87
2018-02-15T18:58:56.394Z,41.83
2018-02-15T19:01:23.894Z,43.00
2018-02-15T19:03:51.352Z,45.33
2018-02-15T19:06:18.815Z,51.50
2018-02-15T19:08:46.331Z,43.33
2018-02-15T19:11:13.784Z,43.23
2018-02-15T19:13:41.265Z,47.40
2018-02-15T19:16:08.774Z,46.43
2018-02-15T19:18:36.361Z,44.60
2018-02-15T19:21:03.824Z,49.87
2018-02-15T19:23:31.310Z,50.63
2018-02-15T19:25:58.773Z,43.80
2018-02-15T19:28:26.263Z,42.80
2018-02-15T19:30:53.730Z,53.83
2018-02-15T19:33:21.216Z,40.20
2018-02-15T19:35:48.681Z,48.77
2018-02-15T19:38:16.147Z,52.47
2018-02-15T19:40:43.707Z,45.77
2018-02-15T19:43:11.241Z,43.47
2018-02-15T19:45:38.836Z,47.73
2018-02-15T19:48:06.308Z,45.13
2018-02-15T19:50:33.802Z,48.47
2018-02-15T19:53:01.273Z,51.77
2018-02-15T19:55:28.808Z,50.00
2018-02-15T19:57:56.973Z,47.70
2018-02-15T20:00:24.724Z,46.70
2018-02-15T20:02:52.312Z,47.77
2018-02-15T20:05:19.778Z,45.17
2018-02-15T20:07:47.251Z,51.50
2018-02-15T20:10:14.776Z,47.03
2018-02-15T20:12:42.366Z,43.07
2018-02-15T20:15:09.912Z,46.87
2018-02-15T20:17:37.360Z,47.13
2018-02-15T20:20:10.416Z,45.50
2018-02-15T20:22:38.925Z,49.70
2018-02-15T20:25:06.459Z,53.87
2018-02-15T20:27:39.647Z,45.60
2018-02-15T20:30:07.222Z,44.17
2018-02-15T20:32:34.801Z,49.27
2018-02-15T20:35:02.351Z,49.70
2018-02-15T20:37:35.421Z,48.03
2018-02-15T20:40:08.695Z,49.67
2018-02-15T20:42:36.275Z,49.03
2018-02-15T20:45:03.834Z,49.17
2018-02-15T20:47:31.418Z,52.93
2018-02-15T20:50:04.406Z,50.00
2018-02-15T20:52:37.415Z,47.83
2018-02-15T20:55:10.591Z,40.60
2018-02-15T20:57:38.068Z,45.93
2018-02-15T21:00:05.522Z,44.63
2018-02-15T21:02:32.971Z,39.30
2018-02-15T21:05:00.446Z,42.50
2018-02-15T21:07:27.911Z,44.13
2018-02-15T21:09:55.403Z,43.43
2018-02-15T21:12:22.893Z,45.07
2018-02-15T21:14:50.388Z,47.70
2018-02-15T21:17:17.876Z,39.50
2018-02-15T21:19:45.323Z,45.60
2018-02-15T21:22:12.794Z,45.93
2018-02-15T21:24:40.397Z,42.57
2018-02-15T21:27:07.865Z,37.63
2018-02-15T21:29:35.331Z,38.93
2018-02-15T21:32:02.819Z,43.83
2018-02-15T21:34:30.279Z,43.27
2018-02-15T21:36:58.553Z,39.50
2018-02-15T21:39:26.122Z,42.63
2018-02-15T21:41:53.597Z,44.03
2018-02-15T21:44:21.067Z,48.60
2018-02-15T21:46:48.586Z,42.60
2018-02-15T21:49:16.082Z,50.87
2018-02-15T21:51:43.577Z,43.03
2018-02-15T21:54:11.036Z,48.83
2018-02-15T21:56:38.522Z,42.43
2018-02-15T21:59:05.991Z,46.27
2018-02-15T22:01:33.465Z,43.90
2018-02-15T22:04:00.956Z,45.07
2018-02-15T22:06:28.602Z,42.50
2018-02-15T22:08:56.079Z,44.07
2018-02-15T22:11:23.620Z,47.33
2018-02-15T22:13:51.094Z,44.23
2018-02-15T22:16:18.580Z,45.30
2018-02-15T22:18:46.044Z,44.63
2018-02-15T22:21:13.521Z,40.13
2018-02-15T22:23:40.991Z,43.93
2018-02-15T22:26:08.458Z,42.90
2018-02-15T22:28:35.949Z,47.30
2018-02-15T22:31:03.395Z,48.87
2018-02-15T22:33:30.886Z,39.67
2018-02-15T22:35:58.373Z,40.73
2018-02-15T22:38:25.892Z,39.27
2018-02-15T22:40:53.371Z,45.50
2018-02-15T22:43:20.825Z,46.80
2018-02-15T22:45:48.295Z,45.77
2018-02-15T22:48:15.751Z,46.60
2018-02-15T22:50:43.446Z,46.87
2018-02-15T22:53:10.912Z,45.87
2018-02-15T22:55:38.387Z,47.07
2018-02-15T22:58:05.873Z,48.03
2018-02-15T23:00:33.335Z,40.77
2018-02-15T23:03:00.798Z,47.10
2018-02-15T23:05:28.332Z,50.43
2018-02-15T23:07:55.803Z,43.87
2018-02-15T23:10:23.282Z,42.03
2018-02-15T23:12:50.752Z,45.43
2018-02-15T23:15:18.827Z,45.27
2018-02-15T23:17:46.291Z,44.50
2018-02-15T23:20:13.762Z,43.07
2018-02-15T23:22:41.231Z,57.07
2018-02-15T23:25:08.699Z,42.10
2018-02-15T23:27:36.155Z,44.23
2018-02-15T23:30:03.723Z,44.57
2018-02-15T23:32:31.174Z,43.17
2018-02-15T23:34:58.659Z,41.20
2018-02-15T23:37:26.123Z,44.60
2018-02-15T23:39:53.612Z,44.50
2018-02-15T23:42:21.123Z,41.93
2018-02-15T23:44:48.767Z,37.10
2018-02-15T23:47:16.222Z,37.70
2018-02-15T23:49:43.682Z,51.67
2018-02-15T23:52:11.276Z,39.60
2018-02-15T23:54:38.762Z,45.13
2018-02-15T23:57:06.223Z,41.17
2018-02-15T23:59:33.687Z,43.70
